createdAt,value
2019-01-26T00:01:54.072Z,30.35
2019-01-26T00:04:27.528Z,33.05
2019-01-26T00:07:01.458Z,32.23
2019-01-26T00:09:34.826Z,29.07
2019-01-26T00:12:08.670Z,32.25
2019-01-26T00:14:41.482Z,29.67
2019-01-26T00:17:14.940Z,32.93
2019-01-26T00:19:48.635Z,30.20
2019-01-26T00:22:22.350Z,31.00
2019-01-26T00:24:55.335Z,26.73
2019-01-26T00:27:28.760Z,26.73
2019-01-26T00:30:01.834Z,25.90
2019-01-26T00:32:35.640Z,25.37
2019-01-26T00:35:08.120Z,24.43
2019-01-26T00:37:41.256Z,28.95
2019-01-26T00:40:15.981Z,26.68
2019-01-26T00:42:49.411Z,29.92
2019-01-26T00:45:22.926Z,27.98
2019-01-26T00:47:56.216Z,32.08
2019-01-26T00:50:29.706Z,28.60
2019-01-26T00:53:03.515Z,27.02
2019-01-26T00:55:36.662Z,29.42
2019-01-26T00:58:10.517Z,22.80
2019-01-26T01:00:43.992Z,23.07
2019-01-26T01:03:17.103Z,22.35
2019-01-26T01:05:53.058Z,24.95
2019-01-26T01:08:25.955Z,23.32
2019-01-26T01:10:59.300Z,24.98
2019-01-26T01:13:33.075Z,23.70
2019-01-26T01:16:06.195Z,21.37
2019-01-26T01:18:39.530Z,21.35
2019-01-26T01:21:12.967Z,24.67
2019-01-26T01:23:46.645Z,23.05
2019-01-26T01:26:20.124Z,22.32
2019-01-26T01:28:53.532Z,22.73
2019-01-26T01:31:27.167Z,23.60
2019-01-26T01:34:00.895Z,19.23
2019-01-26T01:36:34.346Z,22.73
2019-01-26T01:39:08.444Z,16.15
2019-01-26T01:41:41.456Z,26.23
2019-01-26T01:44:15.036Z,20.88
2019-01-26T01:46:48.846Z,17.20
2019-01-26T01:49:21.636Z,19.07
2019-01-26T01:51:55.297Z,17.45
2019-01-26T01:54:28.637Z,19.07
2019-01-26T01:57:02.029Z,19.10
2019-01-26T01:59:34.994Z,21.52
2019-01-26T02:02:08.539Z,14.73
2019-01-26T02:04:41.530Z,18.55
2019-01-26T02:07:14.998Z,19.90
2019-01-26T02:09:50.455Z,21.52
2019-01-26T02:12:23.044Z,27.52
2019-01-26T02:14:56.534Z,22.30
2019-01-26T02:17:29.631Z,24.92
2019-01-26T02:20:03.459Z,25.60
2019-01-26T02:22:36.826Z,27.32
2019-01-26T02:25:10.310Z,28.30
2019-01-26T02:27:43.917Z,25.45
2019-01-26T02:30:18.715Z,30.68
2019-01-26T02:32:52.497Z,27.93
2019-01-26T02:35:26.357Z,29.60
2019-01-26T02:37:59.382Z,34.13
2019-01-26T02:40:32.760Z,34.45
2019-01-26T02:43:05.626Z,38.55
2019-01-26T02:45:38.612Z,37.78
2019-01-26T02:48:10.782Z,36.10
2019-01-26T02:50:43.786Z,32.40
2019-01-26T02:53:17.069Z,32.65
2019-01-26T02:55:50.356Z,35.23
2019-01-26T02:58:23.779Z,38.38
2019-01-26T03:00:57.091Z,33.88
2019-01-26T03:03:30.249Z,33.98
2019-01-26T03:06:03.626Z,43.73
2019-01-26T03:08:36.522Z,47.38
2019-01-26T03:11:09.531Z,46.85
2019-01-26T03:13:42.495Z,48.68
2019-01-26T03:16:15.962Z,46.37
2019-01-26T03:18:49.455Z,50.35
2019-01-26T03:21:22.867Z,58.23
2019-01-26T03:23:55.641Z,66.20
2019-01-26T03:26:29.872Z,63.00
2019-01-26T03:29:04.242Z,54.33
2019-01-26T03:31:37.526Z,56.02
2019-01-26T03:34:10.417Z,65.70
2019-01-26T03:36:43.789Z,63.50
2019-01-26T03:39:17.207Z,67.85
2019-01-26T03:41:49.398Z,53.20
2019-01-26T03:44:22.973Z,56.75
2019-01-26T03:46:56.619Z,52.75
2019-01-26T03:49:30.078Z,69.00
2019-01-26T03:52:03.555Z,64.87
2019-01-26T03:54:36.524Z,71.15
2019-01-26T03:57:09.629Z,70.83
2019-01-26T03:59:43.534Z,71.42
2019-01-26T04:02:16.656Z,65.05
2019-01-26T04:04:52.069Z,67.72
2019-01-26T04:07:24.671Z,70.03
2019-01-26T04:09:58.350Z,75.57
2019-01-26T04:12:31.481Z,80.97
2019-01-26T04:15:05.362Z,66.82
2019-01-26T04:17:38.539Z,66.75
2019-01-26T04:20:13.804Z,61.20
2019-01-26T04:22:47.368Z,61.75
2019-01-26T04:25:20.387Z,62.85
2019-01-26T04:27:54.259Z,63.75
2019-01-26T04:30:27.484Z,58.42
2019-01-26T04:32:59.742Z,61.65
2019-01-26T04:35:33.403Z,77.95
2019-01-26T04:38:06.755Z,66.95
2019-01-26T04:40:40.166Z,70.22
2019-01-26T04:43:13.439Z,59.50
2019-01-26T04:45:47.251Z,63.25
2019-01-26T04:48:20.860Z,74.85
2019-01-26T04:50:54.158Z,69.82
2019-01-26T04:53:27.592Z,66.80
2019-01-26T04:56:01.033Z,59.60
2019-01-26T04:58:34.037Z,56.83
2019-01-26T05:01:06.620Z,53.98
2019-01-26T05:03:39.711Z,50.15
2019-01-26T05:06:13.407Z,61.50
2019-01-26T05:08:48.410Z,74.30
2019-01-26T05:11:21.417Z,55.35
2019-01-26T05:13:54.423Z,60.45
2019-01-26T05:16:27.500Z,61.58
2019-01-26T05:19:00.955Z,57.65
2019-01-26T05:21:34.013Z,57.62
2019-01-26T05:24:07.009Z,64.12
2019-01-26T05:26:39.678Z,59.00
2019-01-26T05:29:13.767Z,62.10
2019-01-26T05:31:46.857Z,57.70
2019-01-26T05:34:19.850Z,61.73
2019-01-26T05:36:52.453Z,58.05
2019-01-26T05:39:25.834Z,48.10
2019-01-26T05:41:59.404Z,53.70
2019-01-26T05:44:33.226Z,56.75
2019-01-26T05:47:06.645Z,62.73
2019-01-26T05:49:40.170Z,58.75
2019-01-26T05:52:12.976Z,52.15
2019-01-26T05:54:46.245Z,53.92
2019-01-26T05:57:19.600Z,56.30
2019-01-26T05:59:53.536Z,62.60
2019-01-26T06:02:27.367Z,48.40
2019-01-26T06:05:00.301Z,64.58
2019-01-26T06:07:33.291Z,68.62
2019-01-26T06:10:05.993Z,57.48
2019-01-26T06:12:39.605Z,50.85
2019-01-26T06:15:13.088Z,65.45
2019-01-26T06:17:46.368Z,48.95
2019-01-26T06:20:20.814Z,54.40
2019-01-26T06:22:53.673Z,49.40
2019-01-26T06:25:27.271Z,41.63
2019-01-26T06:28:00.726Z,51.28
2019-01-26T06:30:34.409Z,43.35
2019-01-26T06:33:07.383Z,48.20
2019-01-26T06:35:40.370Z,49.30
2019-01-26T06:38:13.443Z,51.83
2019-01-26T06:40:46.764Z,49.10
2019-01-26T06:43:20.582Z,55.15
2019-01-26T06:45:53.686Z,54.25
2019-01-26T06:48:27.144Z,60.43
2019-01-26T06:51:00.646Z,66.15
2019-01-26T06:53:33.992Z,67.72
2019-01-26T06:56:06.936Z,63.95
2019-01-26T06:58:39.921Z,55.43
2019-01-26T07:01:12.897Z,58.73
2019-01-26T07:03:46.139Z,51.98
2019-01-26T07:06:26.553Z,58.45
2019-01-26T07:08:59.559Z,53.58
2019-01-26T07:11:32.222Z,57.43
2019-01-26T07:14:05.328Z,60.38
2019-01-26T07:16:37.894Z,49.20
2019-01-26T07:19:11.425Z,56.05
2019-01-26T07:21:45.333Z,56.28
2019-01-26T07:24:18.435Z,47.30
2019-01-26T07:26:52.090Z,53.33
2019-01-26T07:29:25.617Z,51.75
2019-01-26T07:31:58.979Z,48.63
2019-01-26T07:34:32.391Z,47.58
2019-01-26T07:37:05.468Z,38.55
2019-01-26T07:39:38.830Z,48.30
2019-01-26T07:42:11.564Z,41.63
2019-01-26T07:44:44.839Z,37.25
2019-01-26T07:47:18.860Z,37.50
2019-01-26T07:49:54.511Z,36.95
2019-01-26T07:52:27.505Z,30.75
2019-01-26T07:55:01.963Z,34.13
2019-01-26T07:57:35.313Z,35.65
2019-01-26T08:00:11.923Z,30.05
2019-01-26T08:02:44.933Z,28.75
2019-01-26T08:05:18.193Z,28.98
2019-01-26T08:07:52.407Z,26.17
2019-01-26T08:10:25.838Z,32.58
2019-01-26T08:12:58.872Z,30.75
2019-01-26T08:15:34.118Z,27.50
2019-01-26T08:18:08.223Z,27.58
2019-01-26T08:20:41.240Z,27.37
2019-01-26T08:23:14.599Z,30.20
2019-01-26T08:25:47.580Z,28.38
2019-01-26T08:28:20.794Z,24.40
2019-01-26T08:30:53.789Z,23.77
2019-01-26T08:33:26.995Z,20.48
2019-01-26T08:36:00.878Z,27.62
2019-01-26T08:38:34.189Z,29.75
2019-01-26T08:41:07.530Z,33.53
2019-01-26T08:43:40.676Z,27.90
2019-01-26T08:46:14.246Z,26.65
2019-01-26T08:48:47.811Z,28.90
2019-01-26T08:56:18.123Z,21.80
